sensor_id;sensor_type;location;lat;lon;timestamp;temperature;humidity
9971;DHT22;5026;51.494;11.974;2023-07-02T00:02:15;18.60;99.90
9971;DHT22;5026;51.494;11.974;2023-07-02T00:04:44;18.60;99.90
9971;DHT22;5026;51.494;11.974;2023-07-02T00:09:40;18.60;99.90
9971;DHT22;5026;51.494;11.974;2023-07-02T00:12:09;18.70;99.90
9971;DHT22;5026;51.494;11.974;2023-07-02T00:14:36;18.70;99.90
9971;DHT22;5026;51.494;11.974;2023-07-02T00:17:03;18.70;99.90
9971;DHT22;5026;51.494;11.974;2023-07-02T00:19:30;18.70;99.90
9971;DHT22;5026;51.494;11.974;2023-07-02T00:21:57;18.70;99.90
9971;DHT22;5026;51.494;11.974;2023-07-02T00:24:24;18.70;99.90
9971;DHT22;5026;51.494;11.974;2023-07-02T00:29:20;18.60;99.90
9971;DHT22;5026;51.494;11.974;2023-07-02T00:31:47;18.50;99.90
9971;DHT22;5026;51.494;11.974;2023-07-02T00:34:14;18.50;99.90
9971;DHT22;5026;51.494;11.974;2023-07-02T00:36:41;18.50;99.90
9971;DHT22;5026;51.494;11.974;2023-07-02T00:39:08;18.50;99.90
9971;DHT22;5026;51.494;11.974;2023-07-02T00:44:04;18.40;99.90
9971;DHT22;5026;51.494;11.974;2023-07-02T00:46:33;18.50;99.90
9971;DHT22;5026;51.494;11.974;2023-07-02T00:49:01;18.30;99.90
9971;DHT22;5026;51.494;11.974;2023-07-02T00:51:30;18.30;99.90
9971;DHT22;5026;51.494;11.974;2023-07-02T00:53:58;18.20;99.90
9971;DHT22;5026;51.494;11.974;2023-07-02T00:56:26;18.20;99.90
9971;DHT22;5026;51.494;11.974;2023-07-02T00:58:54;18.20;99.90
9971;DHT22;5026;51.494;11.974;2023-07-02T01:01:25;18.10;99.90
9971;DHT22;5026;51.494;11.974;2023-07-02T01:03:57;18.20;99.90
9971;DHT22;5026;51.494;11.974;2023-07-02T01:06:25;18.10;99.90
9971;DHT22;5026;51.494;11.974;2023-07-02T01:08:54;18.20;99.90
9971;DHT22;5026;51.494;11.974;2023-07-02T01:11:23;18.10;99.90
9971;DHT22;5026;51.494;11.974;2023-07-02T01:13:54;18.20;99.90
9971;DHT22;5026;51.494;11.974;2023-07-02T01:16:22;18.20;99.90
9971;DHT22;5026;51.494;11.974;2023-07-02T01:18:50;18.20;99.90
9971;DHT22;5026;51.494;11.974;2023-07-02T01:21:22;18.20;99.90
9971;DHT22;5026;51.494;11.974;2023-07-02T01:23:50;18.20;99.90
9971;DHT22;5026;51.494;11.974;2023-07-02T01:26:17;18.30;99.90
9971;DHT22;5026;51.494;11.974;2023-07-02T01:28:44;18.30;99.90
9971;DHT22;5026;51.494;11.974;2023-07-02T01:33:38;18.20;99.90
9971;DHT22;5026;51.494;11.974;2023-07-02T01:36:05;18.20;99.90
9971;DHT22;5026;51.494;11.974;2023-07-02T01:38:34;18.40;99.90
9971;DHT22;5026;51.494;11.974;2023-07-02T01:41:01;18.30;99.90
9971;DHT22;5026;51.494;11.974;2023-07-02T01:43:28;18.20;99.90
9971;DHT22;5026;51.494;11.974;2023-07-02T01:45:56;18.20;99.90
9971;DHT22;5026;51.494;11.974;2023-07-02T01:48:23;18.20;99.90
9971;DHT22;5026;51.494;11.974;2023-07-02T01:50:50;18.20;99.90
9971;DHT22;5026;51.494;11.974;2023-07-02T01:53:17;18.10;99.90
9971;DHT22;5026;51.494;11.974;2023-07-02T01:55:45;18.20;99.90
9971;DHT22;5026;51.494;11.974;2023-07-02T01:58:12;18.20;99.90
9971;DHT22;5026;51.494;11.974;2023-07-02T02:00:39;18.30;99.90
9971;DHT22;5026;51.494;11.974;2023-07-02T02:03:06;18.20;99.90
9971;DHT22;5026;51.494;11.974;2023-07-02T02:05:33;18.20;99.90
9971;DHT22;5026;51.494;11.974;2023-07-02T02:10:28;18.10;99.90
9971;DHT22;5026;51.494;11.974;2023-07-02T02:12:56;18.00;99.90
9971;DHT22;5026;51.494;11.974;2023-07-02T02:15:23;18.00;99.90
9971;DHT22;5026;51.494;11.974;2023-07-02T02:17:50;18.00;99.90
9971;DHT22;5026;51.494;11.974;2023-07-02T02:20:17;17.90;99.90
9971;DHT22;5026;51.494;11.974;2023-07-02T02:22:44;18.00;99.90
9971;DHT22;5026;51.494;11.974;2023-07-02T02:25:11;18.00;99.90
9971;DHT22;5026;51.494;11.974;2023-07-02T02:27:38;17.90;99.90
9971;DHT22;5026;51.494;11.974;2023-07-02T02:30:10;17.80;99.90
9971;DHT22;5026;51.494;11.974;2023-07-02T02:32:37;17.90;99.90
9971;DHT22;5026;51.494;11.974;2023-07-02T02:35:05;17.90;99.90
9971;DHT22;5026;51.494;11.974;2023-07-02T02:37:33;17.90;99.90
9971;DHT22;5026;51.494;11.974;2023-07-02T02:40:00;17.80;99.90
9971;DHT22;5026;51.494;11.974;2023-07-02T02:42:27;17.70;99.90
9971;DHT22;5026;51.494;11.974;2023-07-02T02:44:54;17.70;99.90
9971;DHT22;5026;51.494;11.974;2023-07-02T02:47:22;17.70;99.90
9971;DHT22;5026;51.494;11.974;2023-07-02T02:49:49;17.70;99.90
9971;DHT22;5026;51.494;11.974;2023-07-02T02:54:45;17.70;99.90
9971;DHT22;5026;51.494;11.974;2023-07-02T02:57:12;17.80;99.90
9971;DHT22;5026;51.494;11.974;2023-07-02T02:59:39;17.90;99.90
9971;DHT22;5026;51.494;11.974;2023-07-02T03:02:06;17.80;99.90
9971;DHT22;5026;51.494;11.974;2023-07-02T03:04:34;17.80;99.90
9971;DHT22;5026;51.494;11.974;2023-07-02T03:07:05;17.70;99.90
9971;DHT22;5026;51.494;11.974;2023-07-02T03:09:33;17.80;99.90
9971;DHT22;5026;51.494;11.974;2023-07-02T03:12:00;17.80;99.90
9971;DHT22;5026;51.494;11.974;2023-07-02T03:14:27;17.90;99.90
9971;DHT22;5026;51.494;11.974;2023-07-02T03:16:54;17.90;99.90
9971;DHT22;5026;51.494;11.974;2023-07-02T03:19:21;17.90;99.90
9971;DHT22;5026;51.494;11.974;2023-07-02T03:21:49;17.90;99.90
9971;DHT22;5026;51.494;11.974;2023-07-02T03:24:16;17.90;99.90
9971;DHT22;5026;51.494;11.974;2023-07-02T03:26:44;18.00;99.90
9971;DHT22;5026;51.494;11.974;2023-07-02T03:29:11;18.00;99.90
9971;DHT22;5026;51.494;11.974;2023-07-02T03:31:39;17.90;99.90
9971;DHT22;5026;51.494;11.974;2023-07-02T03:34:07;17.80;99.90
9971;DHT22;5026;51.494;11.974;2023-07-02T03:36:34;17.90;99.90
9971;DHT22;5026;51.494;11.974;2023-07-02T03:39:03;17.90;99.90
9971;DHT22;5026;51.494;11.974;2023-07-02T03:46:25;17.80;99.90
9971;DHT22;5026;51.494;11.974;2023-07-02T03:48:51;17.80;99.90
9971;DHT22;5026;51.494;11.974;2023-07-02T03:51:18;17.90;99.90
9971;DHT22;5026;51.494;11.974;2023-07-02T03:56:14;17.90;99.90
9971;DHT22;5026;51.494;11.974;2023-07-02T03:58:41;18.00;99.90
9971;DHT22;5026;51.494;11.974;2023-07-02T04:01:09;18.00;99.90
9971;DHT22;5026;51.494;11.974;2023-07-02T04:03:35;17.90;99.90
9971;DHT22;5026;51.494;11.974;2023-07-02T04:06:03;17.90;99.90
9971;DHT22;5026;51.494;11.974;2023-07-02T04:08:31;17.90;99.90
9971;DHT22;5026;51.494;11.974;2023-07-02T04:10:59;17.90;99.90
9971;DHT22;5026;51.494;11.974;2023-07-02T04:13:28;17.90;99.90
9971;DHT22;5026;51.494;11.974;2023-07-02T04:15:54;17.90;99.90
9971;DHT22;5026;51.494;11.974;2023-07-02T04:18:21;17.90;99.90
9971;DHT22;5026;51.494;11.974;2023-07-02T04:20:48;17.90;99.90
9971;DHT22;5026;51.494;11.974;2023-07-02T04:23:15;18.00;99.90
9971;DHT22;5026;51.494;11.974;2023-07-02T04:25:42;18.10;99.90
9971;DHT22;5026;51.494;11.974;2023-07-02T04:28:09;18.30;99.90
9971;DHT22;5026;51.494;11.974;2023-07-02T04:30:38;18.20;99.90
9971;DHT22;5026;51.494;11.974;2023-07-02T04:33:05;18.30;99.90
9971;DHT22;5026;51.494;11.974;2023-07-02T04:35:32;18.40;99.90
9971;DHT22;5026;51.494;11.974;2023-07-02T04:37:59;18.50;99.90
9971;DHT22;5026;51.494;11.974;2023-07-02T04:40:26;18.60;99.90
9971;DHT22;5026;51.494;11.974;2023-07-02T04:45:24;18.80;99.90
9971;DHT22;5026;51.494;11.974;2023-07-02T04:47:52;18.90;99.90
9971;DHT22;5026;51.494;11.974;2023-07-02T04:50:20;18.90;99.90
9971;DHT22;5026;51.494;11.974;2023-07-02T04:52:46;19.00;99.90
9971;DHT22;5026;51.494;11.974;2023-07-02T04:55:14;19.10;99.90
9971;DHT22;5026;51.494;11.974;2023-07-02T04:57:40;19.20;99.90
9971;DHT22;5026;51.494;11.974;2023-07-02T05:00:10;19.30;99.90
9971;DHT22;5026;51.494;11.974;2023-07-02T05:02:38;19.40;99.90
9971;DHT22;5026;51.494;11.974;2023-07-02T05:05:07;19.70;99.90
9971;DHT22;5026;51.494;11.974;2023-07-02T05:07:34;19.90;99.90
9971;DHT22;5026;51.494;11.974;2023-07-02T05:10:01;20.10;99.90
9971;DHT22;5026;51.494;11.974;2023-07-02T05:12:28;20.20;99.90
9971;DHT22;5026;51.494;11.974;2023-07-02T05:14:55;20.20;99.90
9971;DHT22;5026;51.494;11.974;2023-07-02T05:17:22;20.20;99.90
9971;DHT22;5026;51.494;11.974;2023-07-02T05:19:49;20.30;99.90
9971;DHT22;5026;51.494;11.974;2023-07-02T05:22:17;20.30;99.90
9971;DHT22;5026;51.494;11.974;2023-07-02T05:24:44;20.50;99.90
9971;DHT22;5026;51.494;11.974;2023-07-02T05:27:11;20.60;99.90
9971;DHT22;5026;51.494;11.974;2023-07-02T05:29:38;20.60;99.90
9971;DHT22;5026;51.494;11.974;2023-07-02T05:32:06;20.70;99.90
9971;DHT22;5026;51.494;11.974;2023-07-02T05:34:33;20.80;99.90
9971;DHT22;5026;51.494;11.974;2023-07-02T05:39:28;21.40;99.90
9971;DHT22;5026;51.494;11.974;2023-07-02T05:41:56;21.60;99.90
9971;DHT22;5026;51.494;11.974;2023-07-02T05:44:23;22.10;99.90
9971;DHT22;5026;51.494;11.974;2023-07-02T05:46:50;22.60;99.90
9971;DHT22;5026;51.494;11.974;2023-07-02T05:49:17;23.30;99.90
9971;DHT22;5026;51.494;11.974;2023-07-02T05:51:44;23.50;99.90
9971;DHT22;5026;51.494;11.974;2023-07-02T05:54:10;24.20;99.90
9971;DHT22;5026;51.494;11.974;2023-07-02T05:56:39;26.00;99.50
9971;DHT22;5026;51.494;11.974;2023-07-02T06:01:33;30.90;91.30
9971;DHT22;5026;51.494;11.974;2023-07-02T06:04:00;33.20;84.40
9971;DHT22;5026;51.494;11.974;2023-07-02T06:06:27;35.10;75.80
9971;DHT22;5026;51.494;11.974;2023-07-02T06:08:54;35.50;70.70
9971;DHT22;5026;51.494;11.974;2023-07-02T06:11:21;36.20;67.80
9971;DHT22;5026;51.494;11.974;2023-07-02T06:13:50;37.60;64.70
9971;DHT22;5026;51.494;11.974;2023-07-02T06:16:17;37.70;64.90
9971;DHT22;5026;51.494;11.974;2023-07-02T06:18:43;39.70;57.10
9971;DHT22;5026;51.494;11.974;2023-07-02T06:23:41;40.40;54.60
9971;DHT22;5026;51.494;11.974;2023-07-02T06:26:09;41.10;53.90
9971;DHT22;5026;51.494;11.974;2023-07-02T06:28:36;41.60;51.70
9971;DHT22;5026;51.494;11.974;2023-07-02T06:31:04;41.30;51.90
9971;DHT22;5026;51.494;11.974;2023-07-02T06:33:31;41.30;52.30
9971;DHT22;5026;51.494;11.974;2023-07-02T06:35:58;41.20;50.00
9971;DHT22;5026;51.494;11.974;2023-07-02T06:38:25;38.30;51.20
9971;DHT22;5026;51.494;11.974;2023-07-02T06:40:52;36.50;53.30
9971;DHT22;5026;51.494;11.974;2023-07-02T06:43:19;36.50;53.80
9971;DHT22;5026;51.494;11.974;2023-07-02T06:48:14;37.00;54.60
9971;DHT22;5026;51.494;11.974;2023-07-02T06:50:44;37.80;52.10
9971;DHT22;5026;51.494;11.974;2023-07-02T06:55:39;39.40;52.40
9971;DHT22;5026;51.494;11.974;2023-07-02T06:58:06;38.20;51.60
9971;DHT22;5026;51.494;11.974;2023-07-02T07:00:33;36.50;52.10
9971;DHT22;5026;51.494;11.974;2023-07-02T07:03:01;34.50;53.40
9971;DHT22;5026;51.494;11.974;2023-07-02T07:05:29;35.90;53.80
9971;DHT22;5026;51.494;11.974;2023-07-02T07:10:24;32.20;54.80
9971;DHT22;5026;51.494;11.974;2023-07-02T07:12:51;30.50;56.00
9971;DHT22;5026;51.494;11.974;2023-07-02T07:15:18;29.30;58.00
9971;DHT22;5026;51.494;11.974;2023-07-02T07:20:12;27.60;61.00
9971;DHT22;5026;51.494;11.974;2023-07-02T07:22:40;26.90;62.40
9971;DHT22;5026;51.494;11.974;2023-07-02T07:25:08;26.30;63.70
9971;DHT22;5026;51.494;11.974;2023-07-02T07:27:35;25.90;64.30
9971;DHT22;5026;51.494;11.974;2023-07-02T07:32:29;24.70;66.00
9971;DHT22;5026;51.494;11.974;2023-07-02T07:34:56;24.60;67.00
9971;DHT22;5026;51.494;11.974;2023-07-02T07:37:23;24.50;66.90
9971;DHT22;5026;51.494;11.974;2023-07-02T07:39:52;24.50;67.50
9971;DHT22;5026;51.494;11.974;2023-07-02T07:42:19;24.30;68.10
9971;DHT22;5026;51.494;11.974;2023-07-02T07:47:13;24.40;69.60
9971;DHT22;5026;51.494;11.974;2023-07-02T07:49:40;24.60;70.00
9971;DHT22;5026;51.494;11.974;2023-07-02T07:52:07;25.30;69.70
9971;DHT22;5026;51.494;11.974;2023-07-02T07:54:34;25.90;68.60
9971;DHT22;5026;51.494;11.974;2023-07-02T07:57:03;26.00;68.00
9971;DHT22;5026;51.494;11.974;2023-07-02T07:59:30;25.90;67.40
9971;DHT22;5026;51.494;11.974;2023-07-02T08:09:20;26.00;66.50
9971;DHT22;5026;51.494;11.974;2023-07-02T08:11:47;25.80;66.80
9971;DHT22;5026;51.494;11.974;2023-07-02T08:14:16;25.00;67.10
9971;DHT22;5026;51.494;11.974;2023-07-02T08:16:43;24.50;68.30
9971;DHT22;5026;51.494;11.974;2023-07-02T08:19:10;23.90;68.90
9971;DHT22;5026;51.494;11.974;2023-07-02T08:24:05;23.60;70.20
9971;DHT22;5026;51.494;11.974;2023-07-02T08:28:59;23.90;70.70
9971;DHT22;5026;51.494;11.974;2023-07-02T08:31:28;23.80;70.80
9971;DHT22;5026;51.494;11.974;2023-07-02T08:33:55;24.50;71.20
9971;DHT22;5026;51.494;11.974;2023-07-02T08:36:22;26.10;69.00
9971;DHT22;5026;51.494;11.974;2023-07-02T08:38:48;28.00;67.40
9971;DHT22;5026;51.494;11.974;2023-07-02T08:41:15;30.30;65.40
9971;DHT22;5026;51.494;11.974;2023-07-02T08:43:43;32.50;62.60
9971;DHT22;5026;51.494;11.974;2023-07-02T08:46:10;31.60;61.40
9971;DHT22;5026;51.494;11.974;2023-07-02T08:48:39;30.70;61.90
9971;DHT22;5026;51.494;11.974;2023-07-02T08:51:07;30.10;62.10
9971;DHT22;5026;51.494;11.974;2023-07-02T08:53:34;29.10;62.40
9971;DHT22;5026;51.494;11.974;2023-07-02T08:56:01;28.10;63.30
9971;DHT22;5026;51.494;11.974;2023-07-02T09:01:06;26.30;65.40
9971;DHT22;5026;51.494;11.974;2023-07-02T09:03:34;26.10;66.40
9971;DHT22;5026;51.494;11.974;2023-07-02T09:06:04;25.90;67.30
9971;DHT22;5026;51.494;11.974;2023-07-02T09:08:31;25.80;67.30
9971;DHT22;5026;51.494;11.974;2023-07-02T09:11:07;25.80;67.60
9971;DHT22;5026;51.494;11.974;2023-07-02T09:13:44;26.10;67.70
9971;DHT22;5026;51.494;11.974;2023-07-02T09:16:22;27.00;67.50
9971;DHT22;5026;51.494;11.974;2023-07-02T09:18:59;28.30;66.10
9971;DHT22;5026;51.494;11.974;2023-07-02T09:21:38;29.10;65.00
9971;DHT22;5026;51.494;11.974;2023-07-02T09:24:13;29.40;63.90
9971;DHT22;5026;51.494;11.974;2023-07-02T09:26:42;28.90;63.40
9971;DHT22;5026;51.494;11.974;2023-07-02T09:29:09;28.90;63.10
9971;DHT22;5026;51.494;11.974;2023-07-02T09:31:43;30.20;62.20
9971;DHT22;5026;51.494;11.974;2023-07-02T09:34:11;30.90;61.30
9971;DHT22;5026;51.494;11.974;2023-07-02T09:36:39;31.40;61.40
9971;DHT22;5026;51.494;11.974;2023-07-02T09:39:07;32.30;60.80
9971;DHT22;5026;51.494;11.974;2023-07-02T09:41:35;33.10;59.90
9971;DHT22;5026;51.494;11.974;2023-07-02T09:44:02;33.60;58.20
9971;DHT22;5026;51.494;11.974;2023-07-02T09:46:30;32.40;57.60
9971;DHT22;5026;51.494;11.974;2023-07-02T09:48:58;31.10;59.10
9971;DHT22;5026;51.494;11.974;2023-07-02T09:51:26;31.00;60.60
9971;DHT22;5026;51.494;11.974;2023-07-02T09:53:54;31.50;59.90
9971;DHT22;5026;51.494;11.974;2023-07-02T09:56:21;31.40;57.90
9971;DHT22;5026;51.494;11.974;2023-07-02T10:01:16;30.80;59.30
9971;DHT22;5026;51.494;11.974;2023-07-02T10:03:43;30.70;58.20
9971;DHT22;5026;51.494;11.974;2023-07-02T10:08:37;29.90;59.00
9971;DHT22;5026;51.494;11.974;2023-07-02T10:11:10;29.70;59.50
9971;DHT22;5026;51.494;11.974;2023-07-02T10:13:39;29.10;60.00
9971;DHT22;5026;51.494;11.974;2023-07-02T10:16:07;28.80;60.20
9971;DHT22;5026;51.494;11.974;2023-07-02T10:18:34;28.60;60.70
9971;DHT22;5026;51.494;11.974;2023-07-02T10:21:13;28.20;61.10
9971;DHT22;5026;51.494;11.974;2023-07-02T10:23:40;27.60;61.40
9971;DHT22;5026;51.494;11.974;2023-07-02T10:26:14;27.60;62.90
9971;DHT22;5026;51.494;11.974;2023-07-02T10:28:41;27.20;62.80
9971;DHT22;5026;51.494;11.974;2023-07-02T10:31:18;26.60;64.20
9971;DHT22;5026;51.494;11.974;2023-07-02T10:33:46;26.00;64.20
9971;DHT22;5026;51.494;11.974;2023-07-02T10:36:19;25.40;65.20
9971;DHT22;5026;51.494;11.974;2023-07-02T10:38:47;25.00;66.20
9971;DHT22;5026;51.494;11.974;2023-07-02T10:41:26;24.50;66.70
9971;DHT22;5026;51.494;11.974;2023-07-02T10:43:54;24.30;66.70
9971;DHT22;5026;51.494;11.974;2023-07-02T10:46:22;24.30;67.40
9971;DHT22;5026;51.494;11.974;2023-07-02T10:48:52;24.30;67.40
9971;DHT22;5026;51.494;11.974;2023-07-02T10:51:20;24.70;67.40
9971;DHT22;5026;51.494;11.974;2023-07-02T10:53:56;25.40;67.10
9971;DHT22;5026;51.494;11.974;2023-07-02T10:56:26;25.80;65.80
9971;DHT22;5026;51.494;11.974;2023-07-02T10:58:53;26.30;65.60
9971;DHT22;5026;51.494;11.974;2023-07-02T11:01:24;26.40;65.40
9971;DHT22;5026;51.494;11.974;2023-07-02T11:04:03;26.40;64.80
9971;DHT22;5026;51.494;11.974;2023-07-02T11:06:32;25.70;66.50
9971;DHT22;5026;51.494;11.974;2023-07-02T11:09:00;25.80;66.40
9971;DHT22;5026;51.494;11.974;2023-07-02T11:11:28;25.90;65.00
9971;DHT22;5026;51.494;11.974;2023-07-02T11:13:56;26.40;65.90
9971;DHT22;5026;51.494;11.974;2023-07-02T11:16:24;26.60;65.50
9971;DHT22;5026;51.494;11.974;2023-07-02T11:18:53;26.90;64.90
9971;DHT22;5026;51.494;11.974;2023-07-02T11:21:20;26.90;64.80
9971;DHT22;5026;51.494;11.974;2023-07-02T11:23:47;26.80;64.70
9971;DHT22;5026;51.494;11.974;2023-07-02T11:26:14;26.80;64.00
9971;DHT22;5026;51.494;11.974;2023-07-02T11:28:51;26.60;63.90
9971;DHT22;5026;51.494;11.974;2023-07-02T11:31:25;26.30;61.80
9971;DHT22;5026;51.494;11.974;2023-07-02T11:33:53;26.30;62.20
9971;DHT22;5026;51.494;11.974;2023-07-02T11:36:21;26.10;63.10
9971;DHT22;5026;51.494;11.974;2023-07-02T11:38:49;25.90;62.90
9971;DHT22;5026;51.494;11.974;2023-07-02T11:41:17;25.70;63.50
9971;DHT22;5026;51.494;11.974;2023-07-02T11:43:44;25.60;62.60
9971;DHT22;5026;51.494;11.974;2023-07-02T11:46:13;25.80;63.20
9971;DHT22;5026;51.494;11.974;2023-07-02T11:48:40;25.90;63.70
9971;DHT22;5026;51.494;11.974;2023-07-02T11:53:34;26.20;61.90
9971;DHT22;5026;51.494;11.974;2023-07-02T11:56:01;26.20;62.00
9971;DHT22;5026;51.494;11.974;2023-07-02T11:58:28;26.20;62.20
9971;DHT22;5026;51.494;11.974;2023-07-02T12:00:54;26.30;61.40
9971;DHT22;5026;51.494;11.974;2023-07-02T12:03:23;26.20;60.70
9971;DHT22;5026;51.494;11.974;2023-07-02T12:05:50;26.50;63.10
9971;DHT22;5026;51.494;11.974;2023-07-02T12:08:17;26.80;62.50
9971;DHT22;5026;51.494;11.974;2023-07-02T12:10:44;26.80;62.10
9971;DHT22;5026;51.494;11.974;2023-07-02T12:13:11;26.40;59.90
9971;DHT22;5026;51.494;11.974;2023-07-02T12:15:38;26.10;61.70
9971;DHT22;5026;51.494;11.974;2023-07-02T12:20:34;26.30;60.80
9971;DHT22;5026;51.494;11.974;2023-07-02T12:27:55;27.10;61.00
9971;DHT22;5026;51.494;11.974;2023-07-02T12:30:22;26.20;60.10
9971;DHT22;5026;51.494;11.974;2023-07-02T12:32:49;26.00;60.60
9971;DHT22;5026;51.494;11.974;2023-07-02T12:35:16;25.80;61.60
9971;DHT22;5026;51.494;11.974;2023-07-02T12:37:45;26.00;62.00
9971;DHT22;5026;51.494;11.974;2023-07-02T12:40:13;26.00;61.40
9971;DHT22;5026;51.494;11.974;2023-07-02T12:42:42;26.00;60.90
9971;DHT22;5026;51.494;11.974;2023-07-02T12:45:09;26.20;61.50
9971;DHT22;5026;51.494;11.974;2023-07-02T12:47:37;26.40;62.30
9971;DHT22;5026;51.494;11.974;2023-07-02T12:50:04;26.60;61.20
9971;DHT22;5026;51.494;11.974;2023-07-02T12:55:00;26.30;59.80
9971;DHT22;5026;51.494;11.974;2023-07-02T12:57:28;25.90;60.00
9971;DHT22;5026;51.494;11.974;2023-07-02T12:59:55;25.70;60.70
9971;DHT22;5026;51.494;11.974;2023-07-02T13:02:23;25.80;60.10
9971;DHT22;5026;51.494;11.974;2023-07-02T13:04:50;26.00;60.20
9971;DHT22;5026;51.494;11.974;2023-07-02T13:07:17;26.20;59.40
9971;DHT22;5026;51.494;11.974;2023-07-02T13:09:44;26.30;61.60
9971;DHT22;5026;51.494;11.974;2023-07-02T13:12:12;26.30;59.30
9971;DHT22;5026;51.494;11.974;2023-07-02T13:14:40;26.30;60.30
9971;DHT22;5026;51.494;11.974;2023-07-02T13:19:34;25.90;60.10
9971;DHT22;5026;51.494;11.974;2023-07-02T13:22:01;25.80;60.90
9971;DHT22;5026;51.494;11.974;2023-07-02T13:24:32;25.70;60.70
9971;DHT22;5026;51.494;11.974;2023-07-02T13:27:02;25.80;61.20
9971;DHT22;5026;51.494;11.974;2023-07-02T13:29:31;26.00;59.00
9971;DHT22;5026;51.494;11.974;2023-07-02T13:31:58;25.60;58.70
9971;DHT22;5026;51.494;11.974;2023-07-02T13:34:25;25.10;59.10
9971;DHT22;5026;51.494;11.974;2023-07-02T13:39:19;25.20;59.30
9971;DHT22;5026;51.494;11.974;2023-07-02T13:41:46;25.40;59.20
9971;DHT22;5026;51.494;11.974;2023-07-02T13:44:14;25.50;58.10
9971;DHT22;5026;51.494;11.974;2023-07-02T13:46:43;25.60;59.10
9971;DHT22;5026;51.494;11.974;2023-07-02T13:51:38;25.40;59.20
9971;DHT22;5026;51.494;11.974;2023-07-02T13:54:05;25.40;59.70
9971;DHT22;5026;51.494;11.974;2023-07-02T13:56:32;25.40;60.50
9971;DHT22;5026;51.494;11.974;2023-07-02T13:59:04;25.40;59.20
9971;DHT22;5026;51.494;11.974;2023-07-02T14:01:31;25.40;58.80
9971;DHT22;5026;51.494;11.974;2023-07-02T14:03:59;25.40;59.00
9971;DHT22;5026;51.494;11.974;2023-07-02T14:06:26;25.40;60.30
9971;DHT22;5026;51.494;11.974;2023-07-02T14:08:53;25.50;60.30
9971;DHT22;5026;51.494;11.974;2023-07-02T14:11:21;25.60;59.50
9971;DHT22;5026;51.494;11.974;2023-07-02T14:13:48;25.70;59.80
9971;DHT22;5026;51.494;11.974;2023-07-02T14:16:17;25.80;59.30
9971;DHT22;5026;51.494;11.974;2023-07-02T14:18:44;25.80;60.20
9971;DHT22;5026;51.494;11.974;2023-07-02T14:21:11;25.60;60.60
9971;DHT22;5026;51.494;11.974;2023-07-02T14:26:06;25.80;60.00
9971;DHT22;5026;51.494;11.974;2023-07-02T14:28:33;25.80;59.00
9971;DHT22;5026;51.494;11.974;2023-07-02T14:31:01;25.80;59.60
9971;DHT22;5026;51.494;11.974;2023-07-02T14:33:32;25.50;58.70
9971;DHT22;5026;51.494;11.974;2023-07-02T14:36:00;25.20;61.40
9971;DHT22;5026;51.494;11.974;2023-07-02T14:38:27;25.20;61.40
9971;DHT22;5026;51.494;11.974;2023-07-02T14:40:55;25.10;59.10
9971;DHT22;5026;51.494;11.974;2023-07-02T14:43:24;25.20;59.30
9971;DHT22;5026;51.494;11.974;2023-07-02T14:45:53;25.50;60.00
9971;DHT22;5026;51.494;11.974;2023-07-02T14:48:21;25.70;60.30
9971;DHT22;5026;51.494;11.974;2023-07-02T14:50:51;25.60;58.90
9971;DHT22;5026;51.494;11.974;2023-07-02T14:53:19;25.30;59.40
9971;DHT22;5026;51.494;11.974;2023-07-02T14:55:47;25.30;60.30
9971;DHT22;5026;51.494;11.974;2023-07-02T14:58:15;25.30;59.90
9971;DHT22;5026;51.494;11.974;2023-07-02T15:00:43;25.10;58.40
9971;DHT22;5026;51.494;11.974;2023-07-02T15:05:38;25.20;59.80
9971;DHT22;5026;51.494;11.974;2023-07-02T15:08:07;25.30;58.30
9971;DHT22;5026;51.494;11.974;2023-07-02T15:10:34;25.50;58.70
9971;DHT22;5026;51.494;11.974;2023-07-02T15:13:03;25.50;58.00
9971;DHT22;5026;51.494;11.974;2023-07-02T15:15:30;25.30;57.50
9971;DHT22;5026;51.494;11.974;2023-07-02T15:20:24;25.20;59.60
9971;DHT22;5026;51.494;11.974;2023-07-02T15:22:51;25.10;59.30
9971;DHT22;5026;51.494;11.974;2023-07-02T15:25:20;24.90;59.20
9971;DHT22;5026;51.494;11.974;2023-07-02T15:27:47;24.60;58.10
9971;DHT22;5026;51.494;11.974;2023-07-02T15:32:42;24.80;59.20
9971;DHT22;5026;51.494;11.974;2023-07-02T15:35:08;24.90;58.90
9971;DHT22;5026;51.494;11.974;2023-07-02T15:37:35;25.00;59.10
9971;DHT22;5026;51.494;11.974;2023-07-02T15:40:03;25.20;58.20
9971;DHT22;5026;51.494;11.974;2023-07-02T15:42:31;25.20;58.80
9971;DHT22;5026;51.494;11.974;2023-07-02T15:44:59;25.20;59.30
9971;DHT22;5026;51.494;11.974;2023-07-02T15:54:48;24.80;60.10
9971;DHT22;5026;51.494;11.974;2023-07-02T15:57:14;24.90;60.00
9971;DHT22;5026;51.494;11.974;2023-07-02T15:59:43;25.00;60.30
9971;DHT22;5026;51.494;11.974;2023-07-02T16:02:10;25.00;60.30
9971;DHT22;5026;51.494;11.974;2023-07-02T16:04:37;24.70;59.20
9971;DHT22;5026;51.494;11.974;2023-07-02T16:07:07;24.70;60.00
9971;DHT22;5026;51.494;11.974;2023-07-02T16:16:57;24.40;59.40
9971;DHT22;5026;51.494;11.974;2023-07-02T16:24:21;24.00;59.60
9971;DHT22;5026;51.494;11.974;2023-07-02T16:26:49;23.80;60.40
9971;DHT22;5026;51.494;11.974;2023-07-02T16:29:17;23.70;60.40
9971;DHT22;5026;51.494;11.974;2023-07-02T16:31:47;23.60;60.40
9971;DHT22;5026;51.494;11.974;2023-07-02T16:34:16;23.50;60.70
9971;DHT22;5026;51.494;11.974;2023-07-02T16:36:43;23.40;60.70
9971;DHT22;5026;51.494;11.974;2023-07-02T16:39:11;23.30;60.90
9971;DHT22;5026;51.494;11.974;2023-07-02T16:41:38;23.40;60.90
9971;DHT22;5026;51.494;11.974;2023-07-02T16:44:15;23.50;61.00
9971;DHT22;5026;51.494;11.974;2023-07-02T16:46:44;23.60;61.30
9971;DHT22;5026;51.494;11.974;2023-07-02T16:49:11;23.70;61.50
9971;DHT22;5026;51.494;11.974;2023-07-02T16:51:41;23.60;60.80
9971;DHT22;5026;51.494;11.974;2023-07-02T16:54:10;23.50;61.10
9971;DHT22;5026;51.494;11.974;2023-07-02T16:56:41;23.40;61.20
9971;DHT22;5026;51.494;11.974;2023-07-02T17:01:38;23.30;62.10
9971;DHT22;5026;51.494;11.974;2023-07-02T17:06:32;23.10;62.20
9971;DHT22;5026;51.494;11.974;2023-07-02T17:09:21;23.00;62.80
9971;DHT22;5026;51.494;11.974;2023-07-02T17:11:51;22.70;62.10
9971;DHT22;5026;51.494;11.974;2023-07-02T17:14:19;22.60;62.70
9971;DHT22;5026;51.494;11.974;2023-07-02T17:16:51;22.50;62.80
9971;DHT22;5026;51.494;11.974;2023-07-02T17:19:25;22.40;63.00
9971;DHT22;5026;51.494;11.974;2023-07-02T17:21:52;22.30;63.30
9971;DHT22;5026;51.494;11.974;2023-07-02T17:24:23;22.30;63.50
9971;DHT22;5026;51.494;11.974;2023-07-02T17:26:50;22.20;63.20
9971;DHT22;5026;51.494;11.974;2023-07-02T17:29:18;22.20;63.40
9971;DHT22;5026;51.494;11.974;2023-07-02T17:31:49;22.30;63.30
9971;DHT22;5026;51.494;11.974;2023-07-02T17:34:17;22.30;63.70
9971;DHT22;5026;51.494;11.974;2023-07-02T17:36:47;22.20;63.60
9971;DHT22;5026;51.494;11.974;2023-07-02T17:39:16;22.20;63.80
9971;DHT22;5026;51.494;11.974;2023-07-02T17:41:46;22.10;63.60
9971;DHT22;5026;51.494;11.974;2023-07-02T17:46:40;22.10;64.10
9971;DHT22;5026;51.494;11.974;2023-07-02T17:49:08;22.20;64.40
9971;DHT22;5026;51.494;11.974;2023-07-02T17:51:35;22.20;64.40
9971;DHT22;5026;51.494;11.974;2023-07-02T17:56:29;22.40;64.20